Portada
METAR-TAF:

METAR-TAF

Aeropuertos :

Condado de Franklin, Vermont, Estados Unidos

latitud: 44-56-25N, longitud: 073-05-51W, altitud: 69 m

Observación

El informe se hizo hace 26 minutos, a las 00:55 UTC
Viento 6 kt del este-sureste
Temperatura 10°C
Humedad 82%
Presión 1033 hPa
Visibilidad: 16.1 km
Cielo despejado

METAR: KFSO 250055Z AUTO 11006KT 10SM CLR 10/07 A3051 RMK AO2 T01000065

Hora: 21:21 (01:21 UTC)


TAF: falta

Observaciones y pronósticos meteorológicos de más de 4000 aeropuertos (mensajes METAR y TAF).

Los puntos amarillos y rojos representan las estaciones disponibles.

Ponga el ratón en el punto deseado para ver el nombre de la estación.

Haga clic para ver las observaciones y los pronósticos meteorológicos.

Para cambiar el mapa : haga clic en los botones verdes con una cruz de color negro para hacer un zoom, en el botón verde con un guión para alejar o en las flechas verdes para mapas adyacentes.


METAR-TAF: